sensor_id;sensor_type;location;lat;lon;timestamp;temperature;humidity
30280;DHT22;17097;50.916;5.344;2024-01-16T00:00:50;3.20;99.90
30280;DHT22;17097;50.916;5.344;2024-01-16T00:03:16;3.20;99.90
30280;DHT22;17097;50.916;5.344;2024-01-16T00:05:43;3.40;99.90
30280;DHT22;17097;50.916;5.344;2024-01-16T00:08:09;3.30;99.90
30280;DHT22;17097;50.916;5.344;2024-01-16T00:10:35;3.30;99.90
30280;DHT22;17097;50.916;5.344;2024-01-16T00:13:03;3.20;99.90
30280;DHT22;17097;50.916;5.344;2024-01-16T00:15:29;3.10;99.90
30280;DHT22;17097;50.916;5.344;2024-01-16T00:17:54;3.10;99.90
30280;DHT22;17097;50.916;5.344;2024-01-16T00:20:22;3.00;99.90
30280;DHT22;17097;50.916;5.344;2024-01-16T00:22:51;3.00;99.90
30280;DHT22;17097;50.916;5.344;2024-01-16T00:25:17;2.90;99.90
30280;DHT22;17097;50.916;5.344;2024-01-16T00:27:46;3.00;99.90
30280;DHT22;17097;50.916;5.344;2024-01-16T00:30:14;3.10;99.90
30280;DHT22;17097;50.916;5.344;2024-01-16T00:32:40;3.00;99.90
30280;DHT22;17097;50.916;5.344;2024-01-16T00:35:08;3.00;99.90
30280;DHT22;17097;50.916;5.344;2024-01-16T00:37:36;3.00;99.90
30280;DHT22;17097;50.916;5.344;2024-01-16T00:40:02;3.10;99.90
30280;DHT22;17097;50.916;5.344;2024-01-16T00:42:32;2.90;99.90
30280;DHT22;17097;50.916;5.344;2024-01-16T00:44:58;2.80;99.90
30280;DHT22;17097;50.916;5.344;2024-01-16T00:47:23;2.90;99.90
30280;DHT22;17097;50.916;5.344;2024-01-16T00:49:50;3.00;99.90
30280;DHT22;17097;50.916;5.344;2024-01-16T00:52:18;3.00;99.90
30280;DHT22;17097;50.916;5.344;2024-01-16T00:54:45;3.10;99.90
30280;DHT22;17097;50.916;5.344;2024-01-16T00:57:14;2.90;99.90
30280;DHT22;17097;50.916;5.344;2024-01-16T00:59:41;3.10;99.90
30280;DHT22;17097;50.916;5.344;2024-01-16T01:02:09;3.20;99.90
30280;DHT22;17097;50.916;5.344;2024-01-16T01:04:37;3.10;99.90
30280;DHT22;17097;50.916;5.344;2024-01-16T01:07:06;3.00;99.90
30280;DHT22;17097;50.916;5.344;2024-01-16T01:09:32;3.10;99.90
30280;DHT22;17097;50.916;5.344;2024-01-16T01:11:58;3.20;99.90
30280;DHT22;17097;50.916;5.344;2024-01-16T01:14:23;3.20;99.90
30280;DHT22;17097;50.916;5.344;2024-01-16T01:16:58;3.00;99.90
30280;DHT22;17097;50.916;5.344;2024-01-16T01:19:26;2.90;99.90
30280;DHT22;17097;50.916;5.344;2024-01-16T01:21:54;3.10;99.90
30280;DHT22;17097;50.916;5.344;2024-01-16T01:24:23;3.00;99.90
30280;DHT22;17097;50.916;5.344;2024-01-16T01:26:48;3.00;99.90
30280;DHT22;17097;50.916;5.344;2024-01-16T01:29:14;3.00;99.90
30280;DHT22;17097;50.916;5.344;2024-01-16T01:31:42;3.00;99.90
30280;DHT22;17097;50.916;5.344;2024-01-16T01:34:12;3.00;99.90
30280;DHT22;17097;50.916;5.344;2024-01-16T01:36:38;3.10;99.90
30280;DHT22;17097;50.916;5.344;2024-01-16T01:39:03;3.00;99.90
30280;DHT22;17097;50.916;5.344;2024-01-16T01:41:29;3.00;99.90
30280;DHT22;17097;50.916;5.344;2024-01-16T01:43:57;3.10;99.90
30280;DHT22;17097;50.916;5.344;2024-01-16T01:46:23;3.20;99.90
30280;DHT22;17097;50.916;5.344;2024-01-16T01:48:49;3.20;99.90
30280;DHT22;17097;50.916;5.344;2024-01-16T01:51:18;3.20;99.90
30280;DHT22;17097;50.916;5.344;2024-01-16T01:53:45;3.10;99.90
30280;DHT22;17097;50.916;5.344;2024-01-16T01:56:14;3.10;99.90
30280;DHT22;17097;50.916;5.344;2024-01-16T01:58:45;3.10;99.90
30280;DHT22;17097;50.916;5.344;2024-01-16T02:01:12;2.90;99.90
30280;DHT22;17097;50.916;5.344;2024-01-16T02:03:42;3.00;99.90
30280;DHT22;17097;50.916;5.344;2024-01-16T02:06:09;2.80;99.90
30280;DHT22;17097;50.916;5.344;2024-01-16T02:08:35;2.90;99.90
30280;DHT22;17097;50.916;5.344;2024-01-16T02:11:01;2.80;99.90
30280;DHT22;17097;50.916;5.344;2024-01-16T02:13:30;3.00;99.90
30280;DHT22;17097;50.916;5.344;2024-01-16T02:15:56;3.00;99.90
30280;DHT22;17097;50.916;5.344;2024-01-16T02:18:21;3.10;99.90
30280;DHT22;17097;50.916;5.344;2024-01-16T02:20:52;3.10;99.90
30280;DHT22;17097;50.916;5.344;2024-01-16T02:23:28;3.00;99.90
30280;DHT22;17097;50.916;5.344;2024-01-16T02:25:54;3.10;99.90
30280;DHT22;17097;50.916;5.344;2024-01-16T02:28:20;3.10;99.90
30280;DHT22;17097;50.916;5.344;2024-01-16T02:30:46;3.00;99.90
30280;DHT22;17097;50.916;5.344;2024-01-16T02:33:14;3.00;99.90
30280;DHT22;17097;50.916;5.344;2024-01-16T02:35:41;3.00;99.90
30280;DHT22;17097;50.916;5.344;2024-01-16T02:38:07;3.00;99.90
30280;DHT22;17097;50.916;5.344;2024-01-16T02:40:33;2.90;99.90
30280;DHT22;17097;50.916;5.344;2024-01-16T02:42:58;2.90;99.90
30280;DHT22;17097;50.916;5.344;2024-01-16T02:45:25;3.00;99.90
30280;DHT22;17097;50.916;5.344;2024-01-16T02:47:50;3.20;99.90
30280;DHT22;17097;50.916;5.344;2024-01-16T02:50:16;3.20;99.90
30280;DHT22;17097;50.916;5.344;2024-01-16T02:52:42;3.00;99.90
30280;DHT22;17097;50.916;5.344;2024-01-16T02:55:07;3.00;99.90
30280;DHT22;17097;50.916;5.344;2024-01-16T02:57:35;2.90;99.90
30280;DHT22;17097;50.916;5.344;2024-01-16T03:00:04;2.90;99.90
30280;DHT22;17097;50.916;5.344;2024-01-16T03:02:32;3.00;99.90
30280;DHT22;17097;50.916;5.344;2024-01-16T03:04:58;2.90;99.90
30280;DHT22;17097;50.916;5.344;2024-01-16T03:07:23;2.90;99.90
30280;DHT22;17097;50.916;5.344;2024-01-16T03:09:51;2.90;99.90
30280;DHT22;17097;50.916;5.344;2024-01-16T03:12:19;3.00;99.90
30280;DHT22;17097;50.916;5.344;2024-01-16T03:14:46;3.00;99.90
30280;DHT22;17097;50.916;5.344;2024-01-16T03:17:17;3.00;99.90
30280;DHT22;17097;50.916;5.344;2024-01-16T03:19:42;3.00;99.90
30280;DHT22;17097;50.916;5.344;2024-01-16T03:22:09;3.00;99.90
30280;DHT22;17097;50.916;5.344;2024-01-16T03:24:37;2.90;99.90
30280;DHT22;17097;50.916;5.344;2024-01-16T03:27:05;2.70;99.90
30280;DHT22;17097;50.916;5.344;2024-01-16T03:29:30;2.70;99.90
30280;DHT22;17097;50.916;5.344;2024-01-16T03:31:56;2.80;99.90
30280;DHT22;17097;50.916;5.344;2024-01-16T03:34:23;2.70;99.90
30280;DHT22;17097;50.916;5.344;2024-01-16T03:36:49;2.80;99.90
30280;DHT22;17097;50.916;5.344;2024-01-16T03:39:14;2.70;99.90
30280;DHT22;17097;50.916;5.344;2024-01-16T03:41:42;2.70;99.90
30280;DHT22;17097;50.916;5.344;2024-01-16T03:44:12;2.60;99.90
30280;DHT22;17097;50.916;5.344;2024-01-16T03:46:38;2.60;99.90
30280;DHT22;17097;50.916;5.344;2024-01-16T03:49:06;2.60;99.90
30280;DHT22;17097;50.916;5.344;2024-01-16T03:51:32;2.60;99.90
30280;DHT22;17097;50.916;5.344;2024-01-16T03:53:58;2.60;99.90
30280;DHT22;17097;50.916;5.344;2024-01-16T03:56:24;2.60;99.90
30280;DHT22;17097;50.916;5.344;2024-01-16T03:58:52;2.60;99.90
30280;DHT22;17097;50.916;5.344;2024-01-16T04:01:30;2.60;99.90
30280;DHT22;17097;50.916;5.344;2024-01-16T04:03:59;2.50;99.90
30280;DHT22;17097;50.916;5.344;2024-01-16T04:06:24;2.50;99.90
30280;DHT22;17097;50.916;5.344;2024-01-16T04:08:51;2.50;99.90
30280;DHT22;17097;50.916;5.344;2024-01-16T04:11:17;2.50;99.90
30280;DHT22;17097;50.916;5.344;2024-01-16T04:13:42;2.50;99.90
30280;DHT22;17097;50.916;5.344;2024-01-16T04:16:08;2.50;99.90
30280;DHT22;17097;50.916;5.344;2024-01-16T04:18:38;2.50;99.90
30280;DHT22;17097;50.916;5.344;2024-01-16T04:21:04;2.60;99.90
30280;DHT22;17097;50.916;5.344;2024-01-16T04:23:30;2.60;99.90
30280;DHT22;17097;50.916;5.344;2024-01-16T04:25:55;2.60;99.90
30280;DHT22;17097;50.916;5.344;2024-01-16T04:28:21;2.70;99.90
30280;DHT22;17097;50.916;5.344;2024-01-16T04:30:49;2.60;99.90
30280;DHT22;17097;50.916;5.344;2024-01-16T04:33:15;2.50;99.90
30280;DHT22;17097;50.916;5.344;2024-01-16T04:35:43;2.40;99.90
30280;DHT22;17097;50.916;5.344;2024-01-16T04:38:08;2.40;99.90
30280;DHT22;17097;50.916;5.344;2024-01-16T04:40:36;2.30;99.90
30280;DHT22;17097;50.916;5.344;2024-01-16T04:43:02;2.30;99.90
30280;DHT22;17097;50.916;5.344;2024-01-16T04:45:28;2.20;99.90
30280;DHT22;17097;50.916;5.344;2024-01-16T04:47:56;2.20;99.90
30280;DHT22;17097;50.916;5.344;2024-01-16T04:50:24;2.30;99.90
30280;DHT22;17097;50.916;5.344;2024-01-16T04:52:57;2.20;99.90
30280;DHT22;17097;50.916;5.344;2024-01-16T04:55:22;2.30;99.90
30280;DHT22;17097;50.916;5.344;2024-01-16T04:57:50;2.30;99.90
30280;DHT22;17097;50.916;5.344;2024-01-16T05:00:16;2.30;99.90
30280;DHT22;17097;50.916;5.344;2024-01-16T05:02:44;2.30;99.90
30280;DHT22;17097;50.916;5.344;2024-01-16T05:05:10;2.10;99.90
30280;DHT22;17097;50.916;5.344;2024-01-16T05:07:35;2.10;99.90
30280;DHT22;17097;50.916;5.344;2024-01-16T05:10:03;2.20;99.90
30280;DHT22;17097;50.916;5.344;2024-01-16T05:12:29;2.20;99.90
30280;DHT22;17097;50.916;5.344;2024-01-16T05:14:55;2.10;99.90
30280;DHT22;17097;50.916;5.344;2024-01-16T05:17:20;2.10;99.90
30280;DHT22;17097;50.916;5.344;2024-01-16T05:19:46;2.10;99.90
30280;DHT22;17097;50.916;5.344;2024-01-16T05:22:14;2.10;99.90
30280;DHT22;17097;50.916;5.344;2024-01-16T05:24:40;2.10;99.90
30280;DHT22;17097;50.916;5.344;2024-01-16T05:27:06;2.00;99.90
30280;DHT22;17097;50.916;5.344;2024-01-16T05:29:32;1.80;99.90
30280;DHT22;17097;50.916;5.344;2024-01-16T05:31:57;1.80;99.90
30280;DHT22;17097;50.916;5.344;2024-01-16T05:34:23;1.90;99.90
30280;DHT22;17097;50.916;5.344;2024-01-16T05:36:49;1.90;99.90
30280;DHT22;17097;50.916;5.344;2024-01-16T05:39:15;1.80;99.90
30280;DHT22;17097;50.916;5.344;2024-01-16T05:41:42;1.80;99.90
30280;DHT22;17097;50.916;5.344;2024-01-16T05:44:10;1.80;99.90
30280;DHT22;17097;50.916;5.344;2024-01-16T05:46:38;1.90;99.90
30280;DHT22;17097;50.916;5.344;2024-01-16T05:49:06;1.80;99.90
30280;DHT22;17097;50.916;5.344;2024-01-16T05:51:34;1.70;99.90
30280;DHT22;17097;50.916;5.344;2024-01-16T05:54:00;1.70;99.90
30280;DHT22;17097;50.916;5.344;2024-01-16T05:56:28;1.70;99.90
30280;DHT22;17097;50.916;5.344;2024-01-16T05:58:59;1.70;99.90
30280;DHT22;17097;50.916;5.344;2024-01-16T06:01:24;1.70;99.90
30280;DHT22;17097;50.916;5.344;2024-01-16T06:03:50;1.70;99.90
30280;DHT22;17097;50.916;5.344;2024-01-16T06:06:18;1.80;99.90
30280;DHT22;17097;50.916;5.344;2024-01-16T06:08:44;1.70;99.90
30280;DHT22;17097;50.916;5.344;2024-01-16T06:11:12;1.60;99.90
30280;DHT22;17097;50.916;5.344;2024-01-16T06:13:39;1.50;99.90
30280;DHT22;17097;50.916;5.344;2024-01-16T06:16:10;1.50;99.90
30280;DHT22;17097;50.916;5.344;2024-01-16T06:18:35;1.60;99.90
30280;DHT22;17097;50.916;5.344;2024-01-16T06:21:02;1.60;99.90
30280;DHT22;17097;50.916;5.344;2024-01-16T06:23:28;1.50;99.90
30280;DHT22;17097;50.916;5.344;2024-01-16T06:25:54;1.40;99.90
30280;DHT22;17097;50.916;5.344;2024-01-16T06:28:22;1.40;99.90
30280;DHT22;17097;50.916;5.344;2024-01-16T06:30:48;1.40;99.90
30280;DHT22;17097;50.916;5.344;2024-01-16T06:33:13;1.40;99.90
30280;DHT22;17097;50.916;5.344;2024-01-16T06:35:39;1.40;99.90
30280;DHT22;17097;50.916;5.344;2024-01-16T06:38:04;1.40;99.90
30280;DHT22;17097;50.916;5.344;2024-01-16T06:40:30;1.50;99.90
30280;DHT22;17097;50.916;5.344;2024-01-16T06:42:56;1.50;99.90
30280;DHT22;17097;50.916;5.344;2024-01-16T06:45:24;1.30;99.90
30280;DHT22;17097;50.916;5.344;2024-01-16T06:47:51;1.20;99.90
30280;DHT22;17097;50.916;5.344;2024-01-16T06:50:17;1.10;99.90
30280;DHT22;17097;50.916;5.344;2024-01-16T06:52:43;1.00;99.90
30280;DHT22;17097;50.916;5.344;2024-01-16T06:55:08;1.20;99.90
30280;DHT22;17097;50.916;5.344;2024-01-16T06:57:36;1.20;99.90
30280;DHT22;17097;50.916;5.344;2024-01-16T07:00:02;1.00;99.90
30280;DHT22;17097;50.916;5.344;2024-01-16T07:02:28;1.10;99.90
30280;DHT22;17097;50.916;5.344;2024-01-16T07:04:56;1.00;99.90
30280;DHT22;17097;50.916;5.344;2024-01-16T07:07:23;1.00;99.90
30280;DHT22;17097;50.916;5.344;2024-01-16T07:09:51;1.20;99.90
30280;DHT22;17097;50.916;5.344;2024-01-16T07:12:20;1.30;99.90
30280;DHT22;17097;50.916;5.344;2024-01-16T07:14:45;1.20;99.90
30280;DHT22;17097;50.916;5.344;2024-01-16T07:17:11;1.20;99.90
30280;DHT22;17097;50.916;5.344;2024-01-16T07:19:36;1.10;99.90
30280;DHT22;17097;50.916;5.344;2024-01-16T07:22:04;1.40;99.90
30280;DHT22;17097;50.916;5.344;2024-01-16T07:24:30;1.30;99.90
30280;DHT22;17097;50.916;5.344;2024-01-16T07:26:56;1.30;99.90
30280;DHT22;17097;50.916;5.344;2024-01-16T07:29:24;1.30;99.90
30280;DHT22;17097;50.916;5.344;2024-01-16T07:31:49;1.20;99.90
30280;DHT22;17097;50.916;5.344;2024-01-16T07:34:15;1.20;99.90
30280;DHT22;17097;50.916;5.344;2024-01-16T07:36:45;1.20;99.90
30280;DHT22;17097;50.916;5.344;2024-01-16T07:39:11;1.20;99.90
30280;DHT22;17097;50.916;5.344;2024-01-16T07:41:37;1.20;99.90
30280;DHT22;17097;50.916;5.344;2024-01-16T07:44:05;1.10;99.90
30280;DHT22;17097;50.916;5.344;2024-01-16T07:46:32;1.20;99.90
30280;DHT22;17097;50.916;5.344;2024-01-16T07:49:01;1.20;99.90
30280;DHT22;17097;50.916;5.344;2024-01-16T07:51:28;1.20;99.90
30280;DHT22;17097;50.916;5.344;2024-01-16T07:54:06;1.20;99.90
30280;DHT22;17097;50.916;5.344;2024-01-16T07:56:33;1.10;99.90
30280;DHT22;17097;50.916;5.344;2024-01-16T07:58:59;1.10;99.90
30280;DHT22;17097;50.916;5.344;2024-01-16T08:01:25;1.20;99.90
30280;DHT22;17097;50.916;5.344;2024-01-16T08:03:54;1.20;99.90
30280;DHT22;17097;50.916;5.344;2024-01-16T08:06:20;1.20;99.90
30280;DHT22;17097;50.916;5.344;2024-01-16T08:08:48;1.40;99.90
30280;DHT22;17097;50.916;5.344;2024-01-16T08:11:14;1.50;99.90
30280;DHT22;17097;50.916;5.344;2024-01-16T08:13:40;1.50;99.90
30280;DHT22;17097;50.916;5.344;2024-01-16T08:16:09;1.60;99.90
30280;DHT22;17097;50.916;5.344;2024-01-16T08:18:35;1.70;99.90
30280;DHT22;17097;50.916;5.344;2024-01-16T08:21:00;1.90;99.90
30280;DHT22;17097;50.916;5.344;2024-01-16T08:23:28;2.00;99.90
30280;DHT22;17097;50.916;5.344;2024-01-16T08:25:54;2.00;99.90
30280;DHT22;17097;50.916;5.344;2024-01-16T08:28:20;2.10;99.90
30280;DHT22;17097;50.916;5.344;2024-01-16T08:30:46;2.20;99.90
30280;DHT22;17097;50.916;5.344;2024-01-16T08:33:16;2.40;99.90
30280;DHT22;17097;50.916;5.344;2024-01-16T08:35:42;2.50;99.90
30280;DHT22;17097;50.916;5.344;2024-01-16T08:38:08;2.60;99.90
30280;DHT22;17097;50.916;5.344;2024-01-16T08:40:36;2.60;99.90
30280;DHT22;17097;50.916;5.344;2024-01-16T08:43:02;2.50;99.90
30280;DHT22;17097;50.916;5.344;2024-01-16T08:45:29;2.50;99.90
30280;DHT22;17097;50.916;5.344;2024-01-16T08:47:57;2.60;99.90
30280;DHT22;17097;50.916;5.344;2024-01-16T08:50:28;2.60;99.90
30280;DHT22;17097;50.916;5.344;2024-01-16T08:52:54;2.60;99.90
30280;DHT22;17097;50.916;5.344;2024-01-16T08:55:20;2.70;99.90
30280;DHT22;17097;50.916;5.344;2024-01-16T08:57:46;2.70;99.90
30280;DHT22;17097;50.916;5.344;2024-01-16T09:00:12;2.80;99.90
30280;DHT22;17097;50.916;5.344;2024-01-16T09:02:38;2.90;99.90
30280;DHT22;17097;50.916;5.344;2024-01-16T09:05:04;2.90;99.90
30280;DHT22;17097;50.916;5.344;2024-01-16T09:07:30;2.80;99.90
30280;DHT22;17097;50.916;5.344;2024-01-16T09:10:00;2.80;99.90
30280;DHT22;17097;50.916;5.344;2024-01-16T09:12:28;2.80;99.90
30280;DHT22;17097;50.916;5.344;2024-01-16T09:14:54;2.80;99.90
30280;DHT22;17097;50.916;5.344;2024-01-16T09:17:20;3.00;99.90
30280;DHT22;17097;50.916;5.344;2024-01-16T09:19:46;3.00;99.90
30280;DHT22;17097;50.916;5.344;2024-01-16T09:22:16;3.00;99.90
30280;DHT22;17097;50.916;5.344;2024-01-16T09:24:42;3.10;99.90
30280;DHT22;17097;50.916;5.344;2024-01-16T09:27:07;3.20;99.90
30280;DHT22;17097;50.916;5.344;2024-01-16T09:29:38;3.30;99.90
30280;DHT22;17097;50.916;5.344;2024-01-16T09:32:03;3.30;99.90
30280;DHT22;17097;50.916;5.344;2024-01-16T09:34:29;3.20;99.90
30280;DHT22;17097;50.916;5.344;2024-01-16T09:36:55;3.20;99.90
30280;DHT22;17097;50.916;5.344;2024-01-16T09:39:24;3.10;99.90
30280;DHT22;17097;50.916;5.344;2024-01-16T09:41:50;3.10;99.90
30280;DHT22;17097;50.916;5.344;2024-01-16T09:44:16;3.30;99.90
30280;DHT22;17097;50.916;5.344;2024-01-16T09:46:44;3.30;99.90
30280;DHT22;17097;50.916;5.344;2024-01-16T09:49:12;3.50;99.90
30280;DHT22;17097;50.916;5.344;2024-01-16T09:51:43;3.60;99.90
30280;DHT22;17097;50.916;5.344;2024-01-16T09:54:09;3.70;99.90
30280;DHT22;17097;50.916;5.344;2024-01-16T09:56:41;4.10;99.90
30280;DHT22;17097;50.916;5.344;2024-01-16T09:59:09;4.80;99.90
30280;DHT22;17097;50.916;5.344;2024-01-16T10:01:37;6.00;99.90
30280;DHT22;17097;50.916;5.344;2024-01-16T10:04:03;7.10;99.90
30280;DHT22;17097;50.916;5.344;2024-01-16T10:06:30;8.10;99.90
30280;DHT22;17097;50.916;5.344;2024-01-16T10:08:57;9.60;99.90
30280;DHT22;17097;50.916;5.344;2024-01-16T10:11:25;11.20;99.90
30280;DHT22;17097;50.916;5.344;2024-01-16T10:13:53;12.20;95.30
30280;DHT22;17097;50.916;5.344;2024-01-16T10:16:18;12.90;92.30
30280;DHT22;17097;50.916;5.344;2024-01-16T10:18:46;14.30;87.90
30280;DHT22;17097;50.916;5.344;2024-01-16T10:21:22;15.20;82.40
30280;DHT22;17097;50.916;5.344;2024-01-16T10:23:49;15.00;76.50
30280;DHT22;17097;50.916;5.344;2024-01-16T10:26:14;15.70;72.20
30280;DHT22;17097;50.916;5.344;2024-01-16T10:28:46;15.80;72.30
30280;DHT22;17097;50.916;5.344;2024-01-16T10:31:14;16.50;66.40
30280;DHT22;17097;50.916;5.344;2024-01-16T10:33:43;16.20;66.70
30280;DHT22;17097;50.916;5.344;2024-01-16T10:36:16;16.40;63.80
30280;DHT22;17097;50.916;5.344;2024-01-16T10:38:48;15.80;64.80
30280;DHT22;17097;50.916;5.344;2024-01-16T10:41:19;16.60;63.30
30280;DHT22;17097;50.916;5.344;2024-01-16T10:44:06;17.10;61.90
30280;DHT22;17097;50.916;5.344;2024-01-16T10:46:35;16.80;60.60
30280;DHT22;17097;50.916;5.344;2024-01-16T10:49:05;17.50;60.50
30280;DHT22;17097;50.916;5.344;2024-01-16T10:51:32;17.90;58.80
30280;DHT22;17097;50.916;5.344;2024-01-16T10:54:03;17.70;58.70
30280;DHT22;17097;50.916;5.344;2024-01-16T10:56:32;17.70;57.00
30280;DHT22;17097;50.916;5.344;2024-01-16T11:01:43;16.00;59.20
30280;DHT22;17097;50.916;5.344;2024-01-16T11:04:12;15.10;60.60
30280;DHT22;17097;50.916;5.344;2024-01-16T11:06:40;15.20;61.50
30280;DHT22;17097;50.916;5.344;2024-01-16T11:09:14;15.60;61.60
30280;DHT22;17097;50.916;5.344;2024-01-16T11:11:46;15.10;62.20
30280;DHT22;17097;50.916;5.344;2024-01-16T11:14:16;14.50;60.80
30280;DHT22;17097;50.916;5.344;2024-01-16T11:16:42;14.00;62.80
30280;DHT22;17097;50.916;5.344;2024-01-16T11:19:09;13.80;63.70
30280;DHT22;17097;50.916;5.344;2024-01-16T11:21:39;13.60;65.60
30280;DHT22;17097;50.916;5.344;2024-01-16T11:24:07;13.40;66.90
30280;DHT22;17097;50.916;5.344;2024-01-16T11:26:34;14.00;66.40
30280;DHT22;17097;50.916;5.344;2024-01-16T11:31:53;15.20;63.00
30280;DHT22;17097;50.916;5.344;2024-01-16T11:37:11;15.80;60.50
30280;DHT22;17097;50.916;5.344;2024-01-16T11:39:40;16.40;61.50
30280;DHT22;17097;50.916;5.344;2024-01-16T11:42:08;16.10;58.10
30280;DHT22;17097;50.916;5.344;2024-01-16T11:44:46;15.80;59.50
30280;DHT22;17097;50.916;5.344;2024-01-16T11:47:19;15.10;60.50
30280;DHT22;17097;50.916;5.344;2024-01-16T11:49:46;14.90;61.20
30280;DHT22;17097;50.916;5.344;2024-01-16T11:52:12;14.70;62.80
30280;DHT22;17097;50.916;5.344;2024-01-16T11:54:42;15.10;63.40
30280;DHT22;17097;50.916;5.344;2024-01-16T12:00:19;13.60;66.10
30280;DHT22;17097;50.916;5.344;2024-01-16T12:05:11;13.00;68.00
30280;DHT22;17097;50.916;5.344;2024-01-16T12:07:46;13.10;68.60
30280;DHT22;17097;50.916;5.344;2024-01-16T12:10:17;13.20;68.40
30280;DHT22;17097;50.916;5.344;2024-01-16T12:12:44;12.70;71.70
30280;DHT22;17097;50.916;5.344;2024-01-16T12:15:20;12.50;72.10
30280;DHT22;17097;50.916;5.344;2024-01-16T12:18:01;12.10;71.90
30280;DHT22;17097;50.916;5.344;2024-01-16T12:20:29;11.80;73.60
30280;DHT22;17097;50.916;5.344;2024-01-16T12:23:00;11.80;73.80
30280;DHT22;17097;50.916;5.344;2024-01-16T12:25:30;11.60;74.30
30280;DHT22;17097;50.916;5.344;2024-01-16T12:28:00;11.90;74.00
30280;DHT22;17097;50.916;5.344;2024-01-16T12:30:34;12.00;71.00
30280;DHT22;17097;50.916;5.344;2024-01-16T12:33:12;12.00;71.60
30280;DHT22;17097;50.916;5.344;2024-01-16T12:35:39;11.90;72.70
30280;DHT22;17097;50.916;5.344;2024-01-16T12:38:07;11.80;73.20
30280;DHT22;17097;50.916;5.344;2024-01-16T12:40:36;12.30;73.70
30280;DHT22;17097;50.916;5.344;2024-01-16T12:43:03;12.20;72.00
30280;DHT22;17097;50.916;5.344;2024-01-16T12:45:30;12.40;72.30
30280;DHT22;17097;50.916;5.344;2024-01-16T12:47:56;12.50;71.80
30280;DHT22;17097;50.916;5.344;2024-01-16T12:50:27;12.90;71.20
30280;DHT22;17097;50.916;5.344;2024-01-16T12:53:06;12.90;69.30
30280;DHT22;17097;50.916;5.344;2024-01-16T12:55:36;13.40;68.70
30280;DHT22;17097;50.916;5.344;2024-01-16T12:58:18;13.00;69.80
30280;DHT22;17097;50.916;5.344;2024-01-16T13:00:49;13.00;68.40
30280;DHT22;17097;50.916;5.344;2024-01-16T13:03:19;11.80;71.50
30280;DHT22;17097;50.916;5.344;2024-01-16T13:05:46;10.90;76.30
30280;DHT22;17097;50.916;5.344;2024-01-16T13:08:22;10.70;78.90
30280;DHT22;17097;50.916;5.344;2024-01-16T13:11:10;10.70;79.20
30280;DHT22;17097;50.916;5.344;2024-01-16T13:13:36;10.80;80.30
30280;DHT22;17097;50.916;5.344;2024-01-16T13:16:04;10.60;79.70
30280;DHT22;17097;50.916;5.344;2024-01-16T13:18:33;10.20;80.90
30280;DHT22;17097;50.916;5.344;2024-01-16T13:21:02;9.70;81.90
30280;DHT22;17097;50.916;5.344;2024-01-16T13:23:28;9.60;82.30
30280;DHT22;17097;50.916;5.344;2024-01-16T13:25:55;8.90;84.00
30280;DHT22;17097;50.916;5.344;2024-01-16T13:28:22;8.60;86.10
30280;DHT22;17097;50.916;5.344;2024-01-16T13:30:48;8.40;87.70
30280;DHT22;17097;50.916;5.344;2024-01-16T13:33:17;8.30;90.00
30280;DHT22;17097;50.916;5.344;2024-01-16T13:35:46;8.10;90.30
30280;DHT22;17097;50.916;5.344;2024-01-16T13:38:16;8.30;90.90
30280;DHT22;17097;50.916;5.344;2024-01-16T13:40:42;8.30;90.60
30280;DHT22;17097;50.916;5.344;2024-01-16T13:43:11;8.20;91.20
30280;DHT22;17097;50.916;5.344;2024-01-16T13:45:40;8.30;90.80
30280;DHT22;17097;50.916;5.344;2024-01-16T13:48:07;8.60;90.80
30280;DHT22;17097;50.916;5.344;2024-01-16T13:50:33;8.80;90.40
30280;DHT22;17097;50.916;5.344;2024-01-16T13:53:02;8.90;90.40
30280;DHT22;17097;50.916;5.344;2024-01-16T13:55:30;8.30;90.40
30280;DHT22;17097;50.916;5.344;2024-01-16T13:57:57;8.50;91.20
30280;DHT22;17097;50.916;5.344;2024-01-16T14:00:25;7.70;91.70
30280;DHT22;17097;50.916;5.344;2024-01-16T14:02:51;7.80;92.00
30280;DHT22;17097;50.916;5.344;2024-01-16T14:05:20;7.40;93.20
30280;DHT22;17097;50.916;5.344;2024-01-16T14:07:48;7.60;93.30
30280;DHT22;17097;50.916;5.344;2024-01-16T14:10:18;7.30;95.60
30280;DHT22;17097;50.916;5.344;2024-01-16T14:12:46;7.40;95.70
30280;DHT22;17097;50.916;5.344;2024-01-16T14:15:13;7.40;95.20
30280;DHT22;17097;50.916;5.344;2024-01-16T14:17:50;7.30;94.90
30280;DHT22;17097;50.916;5.344;2024-01-16T14:20:17;7.20;95.00
30280;DHT22;17097;50.916;5.344;2024-01-16T14:22:46;7.40;95.40
30280;DHT22;17097;50.916;5.344;2024-01-16T14:25:11;7.50;95.50
30280;DHT22;17097;50.916;5.344;2024-01-16T14:27:44;7.00;95.30
30280;DHT22;17097;50.916;5.344;2024-01-16T14:30:14;7.00;95.80
30280;DHT22;17097;50.916;5.344;2024-01-16T14:32:42;7.00;95.90
30280;DHT22;17097;50.916;5.344;2024-01-16T14:35:11;6.90;96.00
30280;DHT22;17097;50.916;5.344;2024-01-16T14:37:39;6.80;96.30
30280;DHT22;17097;50.916;5.344;2024-01-16T14:40:07;6.70;96.50
30280;DHT22;17097;50.916;5.344;2024-01-16T14:42:42;6.60;97.20
30280;DHT22;17097;50.916;5.344;2024-01-16T14:45:08;6.20;98.40
30280;DHT22;17097;50.916;5.344;2024-01-16T14:47:37;6.30;98.50
30280;DHT22;17097;50.916;5.344;2024-01-16T14:50:03;6.30;99.10
30280;DHT22;17097;50.916;5.344;2024-01-16T14:52:32;6.40;99.10
30280;DHT22;17097;50.916;5.344;2024-01-16T14:55:04;6.20;99.70
30280;DHT22;17097;50.916;5.344;2024-01-16T14:57:32;6.30;99.20
30280;DHT22;17097;50.916;5.344;2024-01-16T15:00:08;6.30;99.20
30280;DHT22;17097;50.916;5.344;2024-01-16T15:03:00;6.20;99.60
30280;DHT22;17097;50.916;5.344;2024-01-16T15:05:28;6.00;99.90
30280;DHT22;17097;50.916;5.344;2024-01-16T15:07:57;5.90;99.90
30280;DHT22;17097;50.916;5.344;2024-01-16T15:10:23;6.00;99.90
30280;DHT22;17097;50.916;5.344;2024-01-16T15:12:49;5.70;99.90
30280;DHT22;17097;50.916;5.344;2024-01-16T15:15:15;5.70;99.90
30280;DHT22;17097;50.916;5.344;2024-01-16T15:17:42;5.50;99.90
30280;DHT22;17097;50.916;5.344;2024-01-16T15:20:11;5.60;99.90
30280;DHT22;17097;50.916;5.344;2024-01-16T15:22:41;5.50;99.90
30280;DHT22;17097;50.916;5.344;2024-01-16T15:25:12;5.50;99.90
30280;DHT22;17097;50.916;5.344;2024-01-16T15:27:39;5.50;99.90
30280;DHT22;17097;50.916;5.344;2024-01-16T15:30:07;5.50;99.90
30280;DHT22;17097;50.916;5.344;2024-01-16T15:32:34;5.40;99.90
30280;DHT22;17097;50.916;5.344;2024-01-16T15:35:00;5.40;99.90
30280;DHT22;17097;50.916;5.344;2024-01-16T15:37:27;5.30;99.90
30280;DHT22;17097;50.916;5.344;2024-01-16T15:39:52;5.30;99.90
30280;DHT22;17097;50.916;5.344;2024-01-16T15:42:26;5.10;99.90
30280;DHT22;17097;50.916;5.344;2024-01-16T15:44:55;5.10;99.90
30280;DHT22;17097;50.916;5.344;2024-01-16T15:47:20;5.00;99.90
30280;DHT22;17097;50.916;5.344;2024-01-16T15:49:46;5.00;99.90
30280;DHT22;17097;50.916;5.344;2024-01-16T15:52:13;4.90;99.90
30280;DHT22;17097;50.916;5.344;2024-01-16T15:54:41;4.90;99.90
30280;DHT22;17097;50.916;5.344;2024-01-16T15:57:07;4.70;99.90
30280;DHT22;17097;50.916;5.344;2024-01-16T15:59:33;4.60;99.90